Time;durP1;ratioP1;P1;durP2;ratioP2;P2;SDS_P1;SDS_P2;PMS_P1;PMS_P2;Temp;Humidity;BMP_temperature;BMP_pressure;BME280_temperature;BME280_humidity;BME280_pressure;Samples;Min_cycle;Max_cycle;Signal;HPM_P1;HPM_P2
2023/02/15 02:32:15;;;;;;;;;;;22.10;38.70;;;;;;3047549;19;5211;-68
2023/02/15 02:34:47;;;;;;;;;;;17.60;37.70;;;;;;3051717;19;5072;-81
2023/02/15 02:36:16;;;;;;;;;;;17.60;37.80;;;;;;3053134;19;4824;-82
2023/02/15 02:37:28;;;;;;;;;;;17.60;37.80;;;;;;2952477;19;2004261;-85
2023/02/15 02:38:53;;;;;;;;;;;17.60;37.80;;;;;;3053906;19;4301;-83
2023/02/15 02:40:04;;;;;;;;;;;17.60;38.40;;;;;;3054361;19;5114;-80
2023/02/15 02:41:30;;;;;;;;;;;17.60;37.80;;;;;;3052762;19;4543;-81
2023/02/15 02:42:37;;;;;;;;;;;17.60;37.70;;;;;;2929836;19;2004089;-83
2023/02/15 02:44:02;;;;;;;;;;;17.60;37.80;;;;;;3053902;19;4876;-85
2023/02/15 02:46:18;;;;;;;;;;;17.60;37.80;;;;;;3033280;19;4699;-25
2023/02/15 02:47:21;;;;;;;;;;;17.60;37.80;;;;;;3052192;19;4663;-24
2023/02/15 02:48:24;;;;;;;;;;;17.60;37.90;;;;;;3047420;19;4571;-25
2023/02/15 02:49:36;;;;;;;;;;;17.50;37.80;;;;;;3053060;19;4819;-24
2023/02/15 02:50:38;;;;;;;;;;;17.60;37.80;;;;;;3052344;19;4528;-24
2023/02/15 02:51:39;;;;;;;;;;;17.50;37.80;;;;;;3051634;19;4545;-24
2023/02/15 02:52:49;;;;;;;;;;;17.50;37.80;;;;;;3055385;19;4711;-24
2023/02/15 02:53:56;;;;;;;;;;;17.60;37.90;;;;;;3052325;19;4380;-24
2023/02/15 02:54:56;;;;;;;;;;;17.50;37.90;;;;;;3053326;19;4513;-24
2023/02/15 02:56:03;;;;;;;;;;;17.50;37.80;;;;;;3052588;19;4466;-24
2023/02/15 02:57:05;;;;;;;;;;;17.50;37.90;;;;;;3054423;19;4494;-24
2023/02/15 02:58:13;;;;;;;;;;;17.50;37.90;;;;;;3051266;19;4484;-25
2023/02/15 02:59:20;;;;;;;;;;;17.50;37.90;;;;;;3054223;19;1034;-24
2023/02/15 03:00:21;;;;;;;;;;;17.50;37.80;;;;;;3053229;19;4289;-24
2023/02/15 03:01:30;;;;;;;;;;;17.50;37.90;;;;;;3053940;19;4639;-25
2023/02/15 03:02:32;;;;;;;;;;;17.50;37.90;;;;;;3053798;19;4534;-25
2023/02/15 03:03:46;;;;;;;;;;;17.50;38.00;;;;;;3053500;19;4529;-24
2023/02/15 03:04:49;;;;;;;;;;;17.50;37.80;;;;;;3053009;19;4500;-24
2023/02/15 03:05:52;;;;;;;;;;;17.50;37.80;;;;;;3053283;19;4542;-24
2023/02/15 03:07:04;;;;;;;;;;;17.50;37.90;;;;;;3052053;19;4411;-25
2023/02/15 03:08:05;;;;;;;;;;;17.50;37.90;;;;;;3052431;19;4476;-25
2023/02/15 03:09:14;;;;;;;;;;;17.50;38.00;;;;;;3052153;19;4485;-25
2023/02/15 03:10:14;;;;;;;;;;;17.50;37.90;;;;;;3053950;19;4537;-25
2023/02/15 03:11:15;;;;;;;;;;;17.40;37.90;;;;;;3052447;19;4536;-25
2023/02/15 03:12:18;;;;;;;;;;;17.40;37.80;;;;;;3053935;19;4540;-25
2023/02/15 03:13:18;;;;;;;;;;;17.50;37.90;;;;;;3052489;19;4658;-25
2023/02/15 03:14:19;;;;;;;;;;;17.40;37.90;;;;;;3053710;19;4579;-25
2023/02/15 03:16:25;;;;;;;;;;;17.40;37.90;;;;;;3052187;19;4527;-25
2023/02/15 03:16:49;;;;;;;;;;;17.40;38.00;;;;;;3051293;19;4548;-25
2023/02/15 03:17:56;;;;;;;;;;;17.40;37.90;;;;;;3051416;19;4561;-25
2023/02/15 03:19:03;;;;;;;;;;;17.40;37.80;;;;;;3052113;19;4638;-24
2023/02/15 03:20:09;;;;;;;;;;;17.40;37.90;;;;;;3053620;19;4529;-24
2023/02/15 03:21:09;;;;;;;;;;;17.40;37.90;;;;;;3051467;19;4642;-25
2023/02/15 03:22:15;;;;;;;;;;;17.40;37.90;;;;;;3053504;19;928;-25
2023/02/15 03:23:24;;;;;;;;;;;17.40;37.90;;;;;;3054385;19;4320;-24
2023/02/15 03:24:29;;;;;;;;;;;17.40;37.90;;;;;;3057035;19;4713;-24
2023/02/15 03:25:34;;;;;;;;;;;17.40;38.00;;;;;;3054079;19;4566;-24
2023/02/15 03:26:34;;;;;;;;;;;17.40;38.00;;;;;;3056368;19;4650;-24
2023/02/15 03:27:40;;;;;;;;;;;17.40;37.90;;;;;;3054596;19;4610;-25
2023/02/15 03:28:42;;;;;;;;;;;17.40;37.90;;;;;;3055910;19;4554;-24
2023/02/15 03:29:45;;;;;;;;;;;17.40;38.00;;;;;;3056889;19;4405;-24
2023/02/15 03:30:47;;;;;;;;;;;17.40;38.00;;;;;;3056615;19;4430;-25
2023/02/15 03:31:50;;;;;;;;;;;17.40;38.00;;;;;;3056724;19;5239;-25
2023/02/15 03:32:51;;;;;;;;;;;17.40;37.90;;;;;;3056637;19;4553;-24
2023/02/15 03:34:02;;;;;;;;;;;17.40;38.00;;;;;;3056163;19;4582;-24
2023/02/15 03:35:03;;;;;;;;;;;17.40;37.90;;;;;;3054351;19;4470;-24
2023/02/15 03:36:25;;;;;;;;;;;17.40;37.90;;;;;;3054989;19;4513;-24
2023/02/15 03:37:40;;;;;;;;;;;17.40;38.00;;;;;;2953254;19;2004115;-25
2023/02/15 03:39:13;;;;;;;;;;;17.40;38.00;;;;;;3054380;19;4537;-24
2023/02/15 03:41:46;;;;;;;;;;;17.40;38.00;;;;;;3056681;19;4628;-24
2023/02/15 03:42:49;;;;;;;;;;;17.30;38.00;;;;;;3055592;19;4538;-24
2023/02/15 03:43:56;;;;;;;;;;;17.30;38.00;;;;;;3056575;19;4562;-24
2023/02/15 03:44:58;;;;;;;;;;;17.30;38.10;;;;;;3054685;19;4478;-24
2023/02/15 03:46:04;;;;;;;;;;;17.30;38.00;;;;;;3056184;19;4640;-25
2023/02/15 03:47:11;;;;;;;;;;;17.30;38.00;;;;;;3055783;19;4294;-24
2023/02/15 03:48:11;;;;;;;;;;;17.30;38.40;;;;;;3054192;19;4446;-24
2023/02/15 03:49:48;;;;;;;;;;;17.30;38.00;;;;;;3053688;19;4580;-25
2023/02/15 03:52:09;;;;;;;;;;;17.30;38.10;;;;;;3055093;19;4441;-25
2023/02/15 03:53:11;;;;;;;;;;;17.30;38.20;;;;;;3055418;19;4518;-25
2023/02/15 03:54:13;;;;;;;;;;;17.30;38.10;;;;;;3055272;19;4537;-25
2023/02/15 03:55:14;;;;;;;;;;;17.30;38.10;;;;;;3054448;19;4524;-25
2023/02/15 03:56:15;;;;;;;;;;;17.30;38.00;;;;;;3056478;19;4543;-24
2023/02/15 04:01:58;;;;;;;;;;;17.30;38.20;;;;;;3055461;19;4471;-24
2023/02/15 04:03:31;;;;;;;;;;;17.30;38.10;;;;;;3056730;19;4527;-24
2023/02/15 04:04:39;;;;;;;;;;;17.30;38.10;;;;;;2952728;19;2004333;-25
2023/02/15 04:05:40;;;;;;;;;;;17.30;38.10;;;;;;3055323;19;4595;-25
2023/02/15 04:06:40;;;;;;;;;;;17.20;38.10;;;;;;3056096;19;4407;-24
2023/02/15 04:07:41;;;;;;;;;;;17.30;38.10;;;;;;3056296;19;4755;-24
2023/02/15 04:11:20;;;;;;;;;;;17.30;38.20;;;;;;3053288;19;4468;-25
2023/02/15 04:12:21;;;;;;;;;;;17.20;38.10;;;;;;3056918;19;4390;-25
2023/02/15 04:13:30;;;;;;;;;;;17.20;38.10;;;;;;3057079;19;4514;-25
2023/02/15 04:16:05;;;;;;;;;;;17.20;38.20;;;;;;3056556;19;4538;-24
2023/02/15 04:17:06;;;;;;;;;;;17.20;38.20;;;;;;3056054;19;4432;-25
2023/02/15 04:18:07;;;;;;;;;;;17.20;38.20;;;;;;3056826;19;4380;-25
2023/02/15 04:25:43;;;;;;;;;;;17.20;38.20;;;;;;3056017;19;4817;-24
2023/02/15 04:26:44;;;;;;;;;;;17.20;38.20;;;;;;3054945;19;4524;-25
2023/02/15 04:27:50;;;;;;;;;;;17.20;38.20;;;;;;3055540;19;4655;-25
2023/02/15 04:28:50;;;;;;;;;;;17.20;38.20;;;;;;3056191;19;4537;-24
2023/02/15 04:29:51;;;;;;;;;;;17.10;38.20;;;;;;3056980;19;4502;-24
2023/02/15 04:30:52;;;;;;;;;;;17.20;38.20;;;;;;3055874;19;4573;-25
2023/02/15 04:31:53;;;;;;;;;;;17.20;38.20;;;;;;3056992;19;4542;-24
2023/02/15 04:32:54;;;;;;;;;;;17.20;38.20;;;;;;3055838;19;4473;-24
2023/02/15 04:33:55;;;;;;;;;;;17.10;38.10;;;;;;3056573;19;4560;-24
2023/02/15 04:34:56;;;;;;;;;;;17.10;38.20;;;;;;3054955;19;4578;-24
2023/02/15 04:35:56;;;;;;;;;;;17.20;38.20;;;;;;3056352;19;4483;-24
2023/02/15 04:36:57;;;;;;;;;;;17.20;38.10;;;;;;3055292;19;4298;-24
2023/02/15 04:37:57;;;;;;;;;;;17.10;37.90;;;;;;3054138;19;4496;-25
2023/02/15 04:38:58;;;;;;;;;;;17.20;37.90;;;;;;3055409;19;4578;-25
2023/02/15 04:39:59;;;;;;;;;;;17.20;37.90;;;;;;3057037;19;4429;-24
2023/02/15 04:40:59;;;;;;;;;;;17.20;38.10;;;;;;3055344;19;4497;-24
2023/02/15 04:42:00;;;;;;;;;;;17.20;38.10;;;;;;3053342;19;4533;-25
2023/02/15 04:43:00;;;;;;;;;;;17.30;38.20;;;;;;3056674;19;4473;-24
2023/02/15 04:44:01;;;;;;;;;;;17.30;38.00;;;;;;3055660;19;4329;-24
2023/02/15 04:45:02;;;;;;;;;;;17.40;37.80;;;;;;3054615;19;4313;-24
2023/02/15 04:46:03;;;;;;;;;;;17.40;37.70;;;;;;3054659;19;4326;-25
2023/02/15 04:47:03;;;;;;;;;;;17.40;37.60;;;;;;3054801;19;4502;-24
2023/02/15 04:48:04;;;;;;;;;;;17.50;37.70;;;;;;3056959;19;4385;-24
2023/02/15 04:49:05;;;;;;;;;;;17.50;37.70;;;;;;3051904;19;4587;-25
2023/02/15 04:50:06;;;;;;;;;;;17.50;37.60;;;;;;3054644;19;4268;-25
2023/02/15 04:51:07;;;;;;;;;;;17.50;37.50;;;;;;3055465;19;1030;-24
2023/02/15 04:52:07;;;;;;;;;;;17.50;37.50;;;;;;3056640;19;4431;-24
2023/02/15 04:53:08;;;;;;;;;;;17.50;37.50;;;;;;3055380;19;4534;-25
2023/02/15 04:54:09;;;;;;;;;;;17.50;37.50;;;;;;3054434;19;4659;-24
2023/02/15 04:55:10;;;;;;;;;;;17.50;37.50;;;;;;3054594;19;4600;-25
2023/02/15 04:56:10;;;;;;;;;;;17.50;37.50;;;;;;3051463;19;4388;-24
2023/02/15 04:57:11;;;;;;;;;;;17.60;37.40;;;;;;3056057;19;4631;-25
2023/02/15 04:58:12;;;;;;;;;;;17.70;37.30;;;;;;3055965;19;4580;-25
2023/02/15 04:59:13;;;;;;;;;;;17.70;37.10;;;;;;3055628;19;4484;-24
2023/02/15 05:00:13;;;;;;;;;;;17.70;37.10;;;;;;3055569;19;4481;-25
2023/02/15 05:01:14;;;;;;;;;;;17.80;37.00;;;;;;3055404;19;4492;-24
2023/02/15 05:02:15;;;;;;;;;;;17.80;37.00;;;;;;3053804;19;4550;-24
2023/02/15 05:03:15;;;;;;;;;;;17.80;36.90;;;;;;3056133;19;4385;-25
2023/02/15 05:04:16;;;;;;;;;;;17.80;36.90;;;;;;3055223;19;4712;-25
2023/02/15 05:05:17;;;;;;;;;;;17.80;36.90;;;;;;3054935;19;4452;-24
2023/02/15 05:06:17;;;;;;;;;;;17.80;36.90;;;;;;3053680;19;4499;-25
2023/02/15 05:07:20;;;;;;;;;;;17.80;36.90;;;;;;3055407;19;4460;-24
2023/02/15 05:08:20;;;;;;;;;;;17.80;36.90;;;;;;3053832;19;4558;-25
2023/02/15 05:09:21;;;;;;;;;;;17.80;36.90;;;;;;3056022;19;4556;-24
2023/02/15 05:10:22;;;;;;;;;;;17.80;36.90;;;;;;3053797;19;4348;-24
2023/02/15 05:11:22;;;;;;;;;;;17.80;36.90;;;;;;3056343;19;4457;-25
2023/02/15 05:12:23;;;;;;;;;;;17.90;36.80;;;;;;3056339;19;4544;-24
2023/02/15 05:13:24;;;;;;;;;;;17.90;36.60;;;;;;3055821;19;4539;-25
2023/02/15 05:14:24;;;;;;;;;;;18.00;36.70;;;;;;3056507;19;4551;-25
2023/02/15 05:15:25;;;;;;;;;;;18.00;36.60;;;;;;3052898;19;4552;-24
2023/02/15 05:16:27;;;;;;;;;;;18.00;36.60;;;;;;3055662;19;4367;-24
2023/02/15 05:17:28;;;;;;;;;;;18.00;36.50;;;;;;3056307;19;4513;-25
2023/02/15 05:18:28;;;;;;;;;;;18.00;36.40;;;;;;3053145;19;4428;-25
2023/02/15 05:19:29;;;;;;;;;;;18.00;36.40;;;;;;3055656;19;4564;-24
2023/02/15 05:20:30;;;;;;;;;;;18.00;36.40;;;;;;3055434;19;4534;-24
2023/02/15 05:21:31;;;;;;;;;;;18.00;36.30;;;;;;3055753;19;4516;-25
2023/02/15 05:22:32;;;;;;;;;;;18.00;36.40;;;;;;3056395;19;4543;-25
2023/02/15 05:23:32;;;;;;;;;;;18.00;36.40;;;;;;3053251;19;4555;-24
2023/02/15 05:28:30;;;;;;;;;;;18.00;36.40;;;;;;3055850;19;4621;-25
2023/02/15 05:29:31;;;;;;;;;;;18.00;36.50;;;;;;3054123;19;4555;-24
2023/02/15 05:30:32;;;;;;;;;;;18.00;36.40;;;;;;3055657;19;4387;-25
2023/02/15 05:31:32;;;;;;;;;;;18.00;36.50;;;;;;3055328;19;4755;-25
2023/02/15 05:32:33;;;;;;;;;;;18.10;36.50;;;;;;3053419;19;4369;-25
2023/02/15 05:33:34;;;;;;;;;;;18.00;36.40;;;;;;3054042;19;4407;-24
2023/02/15 05:34:34;;;;;;;;;;;18.00;36.40;;;;;;3054506;19;4532;-26
2023/02/15 05:35:35;;;;;;;;;;;18.10;36.50;;;;;;3055411;19;4766;-25
2023/02/15 05:36:36;;;;;;;;;;;18.00;36.40;;;;;;3054838;19;5057;-24
2023/02/15 05:37:36;;;;;;;;;;;18.00;36.30;;;;;;3055527;19;4532;-24
2023/02/15 05:38:37;;;;;;;;;;;18.10;36.30;;;;;;3053808;19;4381;-25
2023/02/15 05:39:38;;;;;;;;;;;18.00;36.30;;;;;;3055743;19;4520;-24
2023/02/15 05:40:38;;;;;;;;;;;18.00;36.40;;;;;;3054062;19;4497;-25
2023/02/15 05:41:39;;;;;;;;;;;18.00;36.50;;;;;;3053821;19;4496;-25
2023/02/15 05:42:40;;;;;;;;;;;18.00;36.50;;;;;;3055371;19;4390;-25
2023/02/15 05:43:40;;;;;;;;;;;18.00;36.60;;;;;;3054990;19;4657;-28
2023/02/15 05:44:41;;;;;;;;;;;18.00;36.50;;;;;;3056142;19;4539;-25
2023/02/15 05:45:48;;;;;;;;;;;18.10;36.50;;;;;;3054770;19;4433;-25
2023/02/15 05:46:48;;;;;;;;;;;18.10;36.50;;;;;;3051907;19;4608;-25
2023/02/15 05:47:49;;;;;;;;;;;18.20;36.50;;;;;;3055446;19;4764;-25
2023/02/15 05:48:50;;;;;;;;;;;18.20;36.30;;;;;;3054575;19;4730;-25
2023/02/15 05:49:50;;;;;;;;;;;18.30;36.30;;;;;;3054430;19;4579;-25
2023/02/15 05:51:01;;;;;;;;;;;18.30;36.20;;;;;;3054533;19;4473;-25
2023/02/15 05:52:02;;;;;;;;;;;18.40;36.10;;;;;;3055452;19;4470;-24
2023/02/15 05:53:03;;;;;;;;;;;18.40;36.00;;;;;;3053553;19;4470;-25
2023/02/15 05:54:03;;;;;;;;;;;18.50;36.10;;;;;;3051904;19;4483;-24
2023/02/15 05:55:05;;;;;;;;;;;18.60;36.10;;;;;;3053740;19;4458;-25
2023/02/15 05:56:06;;;;;;;;;;;18.60;36.00;;;;;;3054997;19;4482;-26
2023/02/15 05:57:07;;;;;;;;;;;18.60;35.90;;;;;;3055617;19;4423;-25
2023/02/15 05:58:08;;;;;;;;;;;18.70;35.90;;;;;;3056367;19;923;-30
2023/02/15 05:59:08;;;;;;;;;;;18.70;35.80;;;;;;3055219;19;4514;-25
2023/02/15 06:00:09;;;;;;;;;;;18.80;35.60;;;;;;3055340;19;4593;-25
2023/02/15 06:01:12;;;;;;;;;;;18.80;35.60;;;;;;3056041;19;992;-25
2023/02/15 06:02:13;;;;;;;;;;;18.80;35.50;;;;;;3054937;19;4589;-25
2023/02/15 06:03:13;;;;;;;;;;;18.80;35.50;;;;;;3055674;19;4592;-25
2023/02/15 06:04:14;;;;;;;;;;;18.80;35.60;;;;;;3055108;19;4906;-25
2023/02/15 06:05:15;;;;;;;;;;;18.80;35.50;;;;;;3055578;19;4660;-25
2023/02/15 06:06:15;;;;;;;;;;;18.70;35.50;;;;;;3055991;19;4540;-25
2023/02/15 06:07:16;;;;;;;;;;;18.80;35.50;;;;;;3054340;19;4611;-25
2023/02/15 06:08:17;;;;;;;;;;;18.70;35.50;;;;;;3055653;19;4478;-30
2023/02/15 06:09:18;;;;;;;;;;;18.70;35.60;;;;;;3055681;19;4542;-25
2023/02/15 06:10:18;;;;;;;;;;;18.70;35.70;;;;;;3055614;19;4626;-25
2023/02/15 06:11:19;;;;;;;;;;;18.60;35.70;;;;;;3055104;19;4446;-25
2023/02/15 06:12:20;;;;;;;;;;;18.60;35.70;;;;;;3053618;19;4656;-25
2023/02/15 06:13:21;;;;;;;;;;;18.60;35.80;;;;;;3055620;19;4644;-25
2023/02/15 06:14:21;;;;;;;;;;;18.70;35.80;;;;;;3055567;19;4563;-25
2023/02/15 06:15:22;;;;;;;;;;;18.70;35.80;;;;;;3055018;19;4549;-25
2023/02/15 06:16:23;;;;;;;;;;;18.80;35.80;;;;;;3055580;19;4509;-25
2023/02/15 06:17:23;;;;;;;;;;;18.80;35.70;;;;;;3055228;19;4395;-25
2023/02/15 06:18:24;;;;;;;;;;;18.90;35.60;;;;;;3055367;19;4618;-25
2023/02/15 06:19:25;;;;;;;;;;;18.90;35.50;;;;;;3055730;19;4594;-25
2023/02/15 06:20:26;;;;;;;;;;;19.00;35.40;;;;;;3054626;19;4393;-25
2023/02/15 06:21:27;;;;;;;;;;;19.00;35.40;;;;;;3055039;19;4565;-24
2023/02/15 06:22:27;;;;;;;;;;;19.00;35.30;;;;;;3051166;19;4410;-24
2023/02/15 06:23:28;;;;;;;;;;;19.00;35.30;;;;;;3052528;19;4574;-25
2023/02/15 06:24:29;;;;;;;;;;;19.00;35.30;;;;;;3052039;19;4476;-25
2023/02/15 06:25:29;;;;;;;;;;;19.00;35.30;;;;;;3050521;19;4640;-24
2023/02/15 06:26:30;;;;;;;;;;;19.00;35.30;;;;;;3050839;19;4505;-25
2023/02/15 06:27:30;;;;;;;;;;;19.00;35.30;;;;;;3052557;19;4657;-25
2023/02/15 06:28:31;;;;;;;;;;;19.00;35.30;;;;;;3053227;19;4551;-25
2023/02/15 06:29:32;;;;;;;;;;;19.00;35.40;;;;;;3053385;19;4534;-25
2023/02/15 06:30:32;;;;;;;;;;;19.00;35.30;;;;;;3051740;19;4567;-24
2023/02/15 06:31:33;;;;;;;;;;;19.00;35.30;;;;;;3045434;19;4948;-29
2023/02/15 06:32:34;;;;;;;;;;;18.90;35.30;;;;;;3051220;19;4393;-30
2023/02/15 06:33:34;;;;;;;;;;;18.90;35.30;;;;;;3053881;19;4503;-30
2023/02/15 06:34:35;;;;;;;;;;;18.90;35.40;;;;;;3054153;19;4569;-30
2023/02/15 06:35:36;;;;;;;;;;;18.80;35.40;;;;;;3054673;19;4517;-29
2023/02/15 06:36:36;;;;;;;;;;;18.90;35.40;;;;;;3054012;19;4529;-30
2023/02/15 06:37:37;;;;;;;;;;;18.80;35.30;;;;;;3053393;19;4545;-30
2023/02/15 06:38:38;;;;;;;;;;;18.80;35.40;;;;;;3053249;19;4538;-30
2023/02/15 06:39:38;;;;;;;;;;;18.80;35.40;;;;;;3052964;19;4598;-37
2023/02/15 06:40:39;;;;;;;;;;;18.80;35.50;;;;;;3051665;19;4557;-30
2023/02/15 06:41:40;;;;;;;;;;;18.80;35.70;;;;;;3052576;19;4568;-31
2023/02/15 06:42:41;;;;;;;;;;;18.80;35.70;;;;;;3055220;19;4558;-30
2023/02/15 06:43:42;;;;;;;;;;;18.80;35.60;;;;;;3054011;19;4517;-28
2023/02/15 06:44:43;;;;;;;;;;;18.90;35.50;;;;;;3053765;19;4520;-30
2023/02/15 06:45:43;;;;;;;;;;;18.90;35.40;;;;;;3053243;19;4502;-28
2023/02/15 06:46:44;;;;;;;;;;;18.90;35.40;;;;;;3053677;19;4412;-32
2023/02/15 06:47:45;;;;;;;;;;;19.00;35.30;;;;;;3053773;19;4641;-28
2023/02/15 06:48:45;;;;;;;;;;;19.00;35.30;;;;;;3054332;19;4545;-28
2023/02/15 06:49:46;;;;;;;;;;;19.00;35.30;;;;;;3054961;19;4630;-29
2023/02/15 06:50:47;;;;;;;;;;;19.00;35.20;;;;;;3054948;19;4534;-28
2023/02/15 06:51:47;;;;;;;;;;;19.00;35.20;;;;;;3054764;19;4536;-28
2023/02/15 06:52:48;;;;;;;;;;;19.00;35.20;;;;;;3053323;19;4530;-28
2023/02/15 06:53:49;;;;;;;;;;;19.00;35.20;;;;;;3051103;19;4711;-30
2023/02/15 06:54:50;;;;;;;;;;;19.00;35.30;;;;;;3051951;19;4429;-28
2023/02/15 06:55:51;;;;;;;;;;;19.00;35.20;;;;;;3052909;19;4533;-29
2023/02/15 06:56:51;;;;;;;;;;;19.00;35.20;;;;;;3054722;19;4445;-28
2023/02/15 06:57:52;;;;;;;;;;;19.00;35.30;;;;;;3055077;19;4524;-29
2023/02/15 06:58:53;;;;;;;;;;;19.00;35.30;;;;;;3056963;19;4521;-28
2023/02/15 06:59:53;;;;;;;;;;;19.00;35.30;;;;;;3056311;19;4383;-28
2023/02/15 07:00:54;;;;;;;;;;;19.00;36.00;;;;;;3058128;19;4613;-28
2023/02/15 07:01:55;;;;;;;;;;;18.90;35.20;;;;;;3056162;19;4475;-29
2023/02/15 07:02:57;;;;;;;;;;;18.90;35.20;;;;;;3054803;19;4483;-28
2023/02/15 07:03:58;;;;;;;;;;;18.90;35.30;;;;;;3054816;19;4526;-29
2023/02/15 07:04:58;;;;;;;;;;;18.90;35.40;;;;;;3057252;19;4486;-29
2023/02/15 07:06:00;;;;;;;;;;;18.90;35.30;;;;;;3057879;19;4563;-28
2023/02/15 07:07:00;;;;;;;;;;;18.80;35.30;;;;;;3057377;19;4675;-28
2023/02/15 07:08:01;;;;;;;;;;;18.80;35.40;;;;;;3056083;19;4633;-28
2023/02/15 07:09:02;;;;;;;;;;;18.80;35.40;;;;;;3057549;19;4487;-28
2023/02/15 07:10:03;;;;;;;;;;;18.80;35.50;;;;;;3058317;19;4493;-28
2023/02/15 07:12:41;;;;;;;;;;;18.80;35.70;;;;;;2952883;19;2004207;-28
2023/02/15 07:13:42;;;;;;;;;;;18.80;35.50;;;;;;3056011;19;4503;-28
2023/02/15 07:14:43;;;;;;;;;;;18.90;35.50;;;;;;3055612;19;4362;-30
2023/02/15 07:15:44;;;;;;;;;;;18.90;35.40;;;;;;3054987;19;4829;-28
2023/02/15 07:16:44;;;;;;;;;;;18.90;35.40;;;;;;3055589;19;4516;-29
2023/02/15 07:17:45;;;;;;;;;;;18.90;35.30;;;;;;3055236;19;4590;-28
2023/02/15 07:18:46;;;;;;;;;;;18.90;35.30;;;;;;3054912;19;4564;-28
2023/02/15 07:19:47;;;;;;;;;;;19.00;35.30;;;;;;3049471;19;4537;-29
2023/02/15 07:20:47;;;;;;;;;;;18.90;35.30;;;;;;3053223;19;4555;-28
2023/02/15 07:21:48;;;;;;;;;;;18.90;35.20;;;;;;3054149;19;4550;-28
2023/02/15 07:22:49;;;;;;;;;;;18.90;35.40;;;;;;3054302;19;4553;-28
2023/02/15 07:23:49;;;;;;;;;;;18.90;35.40;;;;;;3056417;19;4550;-28
2023/02/15 07:24:54;;;;;;;;;;;18.90;35.40;;;;;;3056849;19;4367;-28
2023/02/15 07:25:58;;;;;;;;;;;18.90;35.30;;;;;;3057399;19;4569;-29
2023/02/15 07:26:59;;;;;;;;;;;18.90;35.30;;;;;;3054992;19;4473;-29
2023/02/15 07:28:03;;;;;;;;;;;19.00;35.30;;;;;;3055595;19;4648;-30
2023/02/15 07:29:04;;;;;;;;;;;19.00;35.40;;;;;;3056088;19;4522;-29
2023/02/15 07:30:05;;;;;;;;;;;19.00;35.30;;;;;;3056611;19;4642;-29
2023/02/15 07:31:06;;;;;;;;;;;19.00;35.30;;;;;;3054916;19;4530;-27
2023/02/15 07:32:06;;;;;;;;;;;19.00;35.20;;;;;;3053163;19;944;-28
2023/02/15 07:33:22;;;;;;;;;;;19.00;35.20;;;;;;3054568;19;4305;-29
2023/02/15 07:34:23;;;;;;;;;;;19.00;35.20;;;;;;3055787;19;4579;-28
2023/02/15 07:35:24;;;;;;;;;;;19.10;35.20;;;;;;3057053;19;4549;-28
2023/02/15 07:36:24;;;;;;;;;;;19.10;35.10;;;;;;3056862;19;4597;-29
2023/02/15 07:37:25;;;;;;;;;;;19.10;35.20;;;;;;3053044;19;4574;-28
2023/02/15 07:38:27;;;;;;;;;;;19.10;35.10;;;;;;3056719;19;4704;-29
2023/02/15 07:39:28;;;;;;;;;;;19.10;35.10;;;;;;3057704;19;4584;-28
2023/02/15 07:40:28;;;;;;;;;;;19.10;35.20;;;;;;3056569;19;4517;-30
2023/02/15 07:41:29;;;;;;;;;;;19.10;35.10;;;;;;3054300;19;4554;-29
2023/02/15 07:42:30;;;;;;;;;;;19.10;35.20;;;;;;3054763;19;4518;-28
2023/02/15 07:43:32;;;;;;;;;;;19.10;35.10;;;;;;3057499;19;4658;-30
2023/02/15 07:44:33;;;;;;;;;;;19.10;35.10;;;;;;3055336;19;4520;-29
2023/02/15 07:45:34;;;;;;;;;;;19.10;35.00;;;;;;3056081;19;4389;-29
2023/02/15 07:46:35;;;;;;;;;;;19.10;35.10;;;;;;3056676;19;4524;-29
2023/02/15 07:47:35;;;;;;;;;;;19.10;35.00;;;;;;3054824;19;4397;-29
2023/02/15 07:48:36;;;;;;;;;;;19.10;35.70;;;;;;3054068;19;4526;-29
2023/02/15 07:49:37;;;;;;;;;;;19.00;35.00;;;;;;3054897;19;4542;-28
2023/02/15 07:50:38;;;;;;;;;;;19.00;35.10;;;;;;3054925;19;4510;-28
2023/02/15 07:51:40;;;;;;;;;;;19.00;35.10;;;;;;3052385;19;4703;-29
2023/02/15 07:52:41;;;;;;;;;;;19.00;35.10;;;;;;3055873;19;4537;-29
2023/02/15 07:53:42;;;;;;;;;;;19.00;35.20;;;;;;3055924;19;4563;-29
2023/02/15 07:54:43;;;;;;;;;;;19.00;35.20;;;;;;3055580;19;4534;-29
2023/02/15 07:55:43;;;;;;;;;;;18.90;35.20;;;;;;3053434;19;4558;-29
2023/02/15 07:56:44;;;;;;;;;;;18.90;35.30;;;;;;3056263;19;4649;-29
2023/02/15 07:57:45;;;;;;;;;;;18.90;35.50;;;;;;3054277;19;4539;-29
2023/02/15 07:58:52;;;;;;;;;;;18.90;35.40;;;;;;3053938;19;4537;-29
2023/02/15 07:59:53;;;;;;;;;;;19.00;35.80;;;;;;3053857;19;4501;-29
2023/02/15 08:01:00;;;;;;;;;;;19.00;35.40;;;;;;3053969;19;5012;-29
2023/02/15 08:02:01;;;;;;;;;;;19.00;35.30;;;;;;3056246;19;4404;-29
2023/02/15 08:03:14;;;;;;;;;;;19.10;35.30;;;;;;3054848;19;4465;-29
2023/02/15 08:04:14;;;;;;;;;;;19.10;35.20;;;;;;3055215;19;4530;-28
2023/02/15 08:05:16;;;;;;;;;;;19.10;35.20;;;;;;3056914;19;4505;-28
2023/02/15 08:06:17;;;;;;;;;;;19.10;35.10;;;;;;3055608;19;4504;-28
2023/02/15 08:07:18;;;;;;;;;;;19.10;35.10;;;;;;3053673;19;4396;-29
2023/02/15 08:08:30;;;;;;;;;;;19.10;35.10;;;;;;3055346;19;4529;-29
2023/02/15 08:09:31;;;;;;;;;;;19.10;35.10;;;;;;3050646;19;4499;-29
2023/02/15 08:11:51;;;;;;;;;;;19.10;35.10;;;;;;3053783;19;4527;-29
2023/02/15 08:12:52;;;;;;;;;;;19.10;35.20;;;;;;3053543;19;4551;-29
2023/02/15 08:13:54;;;;;;;;;;;19.10;35.20;;;;;;3056472;19;4584;-28
2023/02/15 08:14:54;;;;;;;;;;;19.10;35.20;;;;;;3056105;19;4628;-29
2023/02/15 08:15:55;;;;;;;;;;;19.00;35.20;;;;;;3055212;19;4497;-29
2023/02/15 08:16:59;;;;;;;;;;;19.00;35.20;;;;;;3056677;19;4530;-29
2023/02/15 08:17:59;;;;;;;;;;;19.00;35.20;;;;;;3056600;19;4471;-29
2023/02/15 08:19:05;;;;;;;;;;;19.00;35.20;;;;;;3055691;19;4513;-29
2023/02/15 08:20:06;;;;;;;;;;;19.00;35.20;;;;;;3053792;19;4277;-29
2023/02/15 08:21:07;;;;;;;;;;;19.00;35.20;;;;;;3053488;19;4441;-29
2023/02/15 08:22:10;;;;;;;;;;;19.00;35.30;;;;;;3056181;19;4564;-29
2023/02/15 08:23:11;;;;;;;;;;;18.90;35.30;;;;;;3053759;19;4619;-28
2023/02/15 08:24:12;;;;;;;;;;;18.90;35.40;;;;;;3053216;19;4539;-29
2023/02/15 08:25:13;;;;;;;;;;;18.90;35.50;;;;;;3053796;19;4560;-29
2023/02/15 08:26:13;;;;;;;;;;;18.90;35.50;;;;;;3054494;19;4542;-30
2023/02/15 08:27:14;;;;;;;;;;;18.90;35.50;;;;;;3052753;19;4582;-29
2023/02/15 08:28:15;;;;;;;;;;;19.00;35.50;;;;;;3053723;19;4544;-29
2023/02/15 08:29:17;;;;;;;;;;;19.00;35.40;;;;;;3055342;19;4535;-28
2023/02/15 08:30:17;;;;;;;;;;;19.00;35.30;;;;;;3055326;19;4532;-29
2023/02/15 08:31:18;;;;;;;;;;;19.00;35.30;;;;;;3053731;19;4584;-29
2023/02/15 08:32:18;;;;;;;;;;;19.10;35.30;;;;;;3056335;19;4475;-29
2023/02/15 08:33:19;;;;;;;;;;;19.10;35.30;;;;;;3051776;19;4542;-29
2023/02/15 08:34:20;;;;;;;;;;;19.10;35.30;;;;;;3053498;19;4582;-28
2023/02/15 08:35:21;;;;;;;;;;;19.10;35.30;;;;;;3054128;19;4532;-29
2023/02/15 08:36:23;;;;;;;;;;;19.10;35.20;;;;;;3055270;19;4490;-28
2023/02/15 08:37:25;;;;;;;;;;;19.10;35.30;;;;;;3054332;19;4576;-29
2023/02/15 08:38:26;;;;;;;;;;;19.10;35.20;;;;;;3056212;19;4496;-29
2023/02/15 08:39:26;;;;;;;;;;;19.10;35.20;;;;;;3056871;19;4723;-29
2023/02/15 08:40:27;;;;;;;;;;;19.10;35.30;;;;;;3056173;19;4513;-29
2023/02/15 08:41:29;;;;;;;;;;;19.10;35.30;;;;;;3055287;19;4550;-28
2023/02/15 08:42:32;;;;;;;;;;;19.00;35.30;;;;;;3056277;19;4548;-29
2023/02/15 08:43:32;;;;;;;;;;;19.00;35.20;;;;;;3055505;19;4547;-29
2023/02/15 08:44:33;;;;;;;;;;;19.00;35.20;;;;;;3055838;19;4538;-29
2023/02/15 08:45:34;;;;;;;;;;;19.00;35.30;;;;;;3055938;19;4614;-29
2023/02/15 08:46:37;;;;;;;;;;;19.00;35.20;;;;;;3056282;19;4728;-29
2023/02/15 08:47:37;;;;;;;;;;;19.00;35.30;;;;;;3052485;19;4596;-29
2023/02/15 08:48:38;;;;;;;;;;;19.00;35.30;;;;;;3054031;19;4699;-29
2023/02/15 08:49:38;;;;;;;;;;;19.00;35.30;;;;;;3054155;19;4521;-28
2023/02/15 08:50:39;;;;;;;;;;;19.00;35.30;;;;;;3054204;19;4570;-29
2023/02/15 08:51:40;;;;;;;;;;;19.00;35.40;;;;;;3057014;19;4636;-29
2023/02/15 08:52:40;;;;;;;;;;;19.00;35.40;;;;;;3055815;19;4496;-29
2023/02/15 08:53:43;;;;;;;;;;;18.90;35.30;;;;;;3056323;19;4593;-29
2023/02/15 08:54:44;;;;;;;;;;;18.90;35.40;;;;;;3051786;19;4510;-29
2023/02/15 08:55:45;;;;;;;;;;;18.90;35.40;;;;;;3054756;19;4752;-29
2023/02/15 08:56:46;;;;;;;;;;;18.90;35.50;;;;;;3054938;19;4583;-29
2023/02/15 08:57:47;;;;;;;;;;;18.90;35.50;;;;;;3054302;19;4534;-29
2023/02/15 08:58:48;;;;;;;;;;;18.90;35.60;;;;;;3052263;19;4617;-29
2023/02/15 08:59:50;;;;;;;;;;;18.90;35.60;;;;;;3050198;19;4517;-29
2023/02/15 09:00:51;;;;;;;;;;;18.90;35.60;;;;;;3050650;19;4648;-28
2023/02/15 09:01:52;;;;;;;;;;;19.00;35.60;;;;;;3051559;19;4513;-29
2023/02/15 09:02:53;;;;;;;;;;;19.00;35.40;;;;;;3051987;19;4508;-29
2023/02/15 09:03:58;;;;;;;;;;;19.00;35.50;;;;;;3051800;19;4603;-31
2023/02/15 09:04:59;;;;;;;;;;;19.10;35.40;;;;;;3053064;19;4573;-29
2023/02/15 09:06:00;;;;;;;;;;;19.10;35.30;;;;;;3052894;19;4593;-29
2023/02/15 09:07:01;;;;;;;;;;;19.00;35.20;;;;;;3053220;19;4414;-29
2023/02/15 09:08:02;;;;;;;;;;;19.10;35.30;;;;;;3049260;19;4496;-29